Time;durP1;ratioP1;P1;durP2;ratioP2;P2;SDS_P1;SDS_P2;PMS_P1;PMS_P2;Temp;Humidity;BMP_temperature;BMP_pressure;BME280_temperature;BME280_humidity;BME280_pressure;Samples;Min_cycle;Max_cycle;Signal;HPM_P1;HPM_P2
2022/11/29 00:01:37;;;;;;;256.70;39.47;;;;;;;;;;4989181;28;20493;-67
2022/11/29 00:04:03;;;;;;;255.90;38.93;;;;;;;;;;4997002;28;20774;-67
2022/11/29 00:06:31;;;;;;;275.40;41.33;;;;;;;;;;5009662;28;20046;-67
2022/11/29 00:08:58;;;;;;;292.80;40.73;;;;;;;;;;5008825;28;20042;-67
2022/11/29 00:14:11;;;;;;;338.33;44.83;;;;;;;;;;5000990;28;20141;-67
2022/11/29 00:16:41;;;;;;;382.73;47.60;;;;;;;;;;4990128;28;20509;-67
2022/11/29 00:19:07;;;;;;;424.70;50.47;;;;;;;;;;4990343;28;20046;-67
2022/11/29 00:21:34;;;;;;;505.47;56.07;;;;;;;;;;4988480;28;20050;-67
2022/11/29 00:24:00;;;;;;;506.90;55.23;;;;;;;;;;4994361;28;20551;-67
2022/11/29 00:26:26;;;;;;;372.60;48.77;;;;;;;;;;5009332;28;20142;-67
2022/11/29 00:28:52;;;;;;;581.10;62.33;;;;;;;;;;5009212;28;20049;-68
2022/11/29 00:31:19;;;;;;;550.13;59.30;;;;;;;;;;5010165;28;20117;-67
2022/11/29 00:33:46;;;;;;;550.50;60.00;;;;;;;;;;5006821;28;20164;-67
2022/11/29 00:36:12;;;;;;;458.53;53.67;;;;;;;;;;4989860;28;20125;-67
2022/11/29 00:38:38;;;;;;;379.87;45.40;;;;;;;;;;4990031;28;20045;-67
2022/11/29 00:41:05;;;;;;;528.27;55.67;;;;;;;;;;5004628;28;20085;-68
2022/11/29 00:43:31;;;;;;;448.87;49.00;;;;;;;;;;5008459;28;20052;-67
2022/11/29 00:45:57;;;;;;;315.97;39.87;;;;;;;;;;4989809;28;20046;-67
2022/11/29 00:48:23;;;;;;;329.47;39.27;;;;;;;;;;4989643;28;20065;-67
2022/11/29 00:50:49;;;;;;;334.50;39.13;;;;;;;;;;4988643;28;20412;-67
2022/11/29 00:53:15;;;;;;;173.03;26.50;;;;;;;;;;5003386;28;20424;-67
2022/11/29 00:55:41;;;;;;;165.70;26.37;;;;;;;;;;5007945;28;20057;-67
2022/11/29 00:58:07;;;;;;;226.07;31.77;;;;;;;;;;5008410;28;20046;-67
2022/11/29 01:00:33;;;;;;;247.27;33.60;;;;;;;;;;5007929;28;20041;-67
2022/11/29 01:02:59;;;;;;;173.73;28.97;;;;;;;;;;5004369;28;20108;-67
2022/11/29 01:05:25;;;;;;;196.10;31.00;;;;;;;;;;4991409;28;20050;-67
2022/11/29 01:07:51;;;;;;;244.30;36.07;;;;;;;;;;4996275;28;20050;-67
2022/11/29 01:10:17;;;;;;;301.07;37.90;;;;;;;;;;5008646;28;20046;-67
2022/11/29 01:12:43;;;;;;;344.10;38.53;;;;;;;;;;4996619;28;20046;-67
2022/11/29 01:15:10;;;;;;;412.80;46.87;;;;;;;;;;4989689;28;20048;-67
2022/11/29 01:17:36;;;;;;;445.33;47.90;;;;;;;;;;5004117;28;20042;-67
2022/11/29 01:20:03;;;;;;;298.03;34.67;;;;;;;;;;4988142;28;20097;-67
2022/11/29 01:22:29;;;;;;;276.07;36.40;;;;;;;;;;4988656;28;20057;-67
2022/11/29 01:24:55;;;;;;;300.47;37.97;;;;;;;;;;4971870;28;20124;-67
2022/11/29 01:27:21;;;;;;;330.87;40.10;;;;;;;;;;4989191;28;20563;-67
2022/11/29 01:29:47;;;;;;;275.33;39.20;;;;;;;;;;4989136;28;20488;-67
2022/11/29 01:32:13;;;;;;;337.70;42.30;;;;;;;;;;4989999;28;20044;-67
2022/11/29 01:34:39;;;;;;;295.27;36.00;;;;;;;;;;4988931;28;20050;-67
2022/11/29 01:37:05;;;;;;;313.50;41.20;;;;;;;;;;4987466;28;20129;-67
2022/11/29 01:39:31;;;;;;;334.23;39.20;;;;;;;;;;4997256;28;20077;-67
2022/11/29 01:41:59;;;;;;;367.83;43.00;;;;;;;;;;4997783;28;20141;-67
2022/11/29 01:44:25;;;;;;;341.83;42.07;;;;;;;;;;5001901;28;20054;-67
2022/11/29 01:46:51;;;;;;;364.27;43.27;;;;;;;;;;4988743;28;20192;-67
2022/11/29 01:49:22;;;;;;;275.47;37.47;;;;;;;;;;4989317;28;20053;-67
2022/11/29 01:51:52;;;;;;;340.17;41.53;;;;;;;;;;4989243;28;20133;-67
2022/11/29 01:54:19;;;;;;;230.03;33.43;;;;;;;;;;4989202;28;20043;-67
2022/11/29 01:56:46;;;;;;;366.17;44.10;;;;;;;;;;4989442;28;20139;-67
2022/11/29 01:59:15;;;;;;;332.93;40.60;;;;;;;;;;4989147;28;20165;-67
2022/11/29 02:01:41;;;;;;;370.90;41.43;;;;;;;;;;4989017;28;20046;-67
2022/11/29 02:04:07;;;;;;;400.50;45.17;;;;;;;;;;4971985;28;20378;-67
2022/11/29 02:06:34;;;;;;;339.60;42.70;;;;;;;;;;4989012;28;20054;-67
2022/11/29 02:09:00;;;;;;;471.40;53.10;;;;;;;;;;4989060;28;20051;-67
2022/11/29 02:11:26;;;;;;;439.60;49.33;;;;;;;;;;5006443;28;20389;-67
2022/11/29 02:14:11;;;;;;;403.50;45.27;;;;;;;;;;5002496;28;20058;-67
2022/11/29 02:16:54;;;;;;;386.57;47.63;;;;;;;;;;4990428;28;20054;-67
2022/11/29 02:19:20;;;;;;;406.40;47.42;;;;;;;;;;4992623;28;20050;-67
2022/11/29 02:21:56;;;;;;;332.47;42.87;;;;;;;;;;4992036;28;20050;-67
2022/11/29 02:24:40;;;;;;;318.03;41.73;;;;;;;;;;4992251;28;20134;-67
2022/11/29 02:27:16;;;;;;;323.17;42.03;;;;;;;;;;4991808;28;20101;-67
2022/11/29 02:30:01;;;;;;;385.37;45.57;;;;;;;;;;4991932;28;20049;-67
2022/11/29 02:32:45;;;;;;;380.93;46.53;;;;;;;;;;4991840;28;20050;-67
2022/11/29 02:35:23;;;;;;;379.07;44.63;;;;;;;;;;5011818;28;20053;-67
2022/11/29 02:38:04;;;;;;;322.03;42.00;;;;;;;;;;5011916;28;20171;-67
2022/11/29 02:40:48;;;;;;;394.87;47.40;;;;;;;;;;5011349;28;20081;-67
2022/11/29 02:43:27;;;;;;;338.90;44.63;;;;;;;;;;5011349;28;20062;-67
2022/11/29 02:45:53;;;;;;;320.97;43.73;;;;;;;;;;5010047;28;20068;-67
2022/11/29 02:48:19;;;;;;;406.60;49.10;;;;;;;;;;5002668;28;20050;-67
2022/11/29 02:50:57;;;;;;;299.93;39.77;;;;;;;;;;4991781;28;20058;-67
2022/11/29 02:53:26;;;;;;;291.23;41.37;;;;;;;;;;4974117;28;20061;-67
2022/11/29 02:56:17;;;;;;;272.93;39.27;;;;;;;;;;4991942;28;20159;-67
2022/11/29 02:58:55;;;;;;;270.00;41.57;;;;;;;;;;4991968;28;20057;-67
2022/11/29 03:01:25;;;;;;;288.30;40.93;;;;;;;;;;4991923;28;20531;-67
2022/11/29 03:04:09;;;;;;;284.23;38.67;;;;;;;;;;4990527;28;20050;-67
2022/11/29 03:06:56;;;;;;;204.30;33.83;;;;;;;;;;5009845;28;20519;-67
2022/11/29 03:09:33;;;;;;;236.77;37.20;;;;;;;;;;5011239;28;20045;-67
2022/11/29 03:12:07;;;;;;;222.40;35.47;;;;;;;;;;5011089;28;20061;-67
2022/11/29 03:14:32;;;;;;;;;;;;;;;;;;5011415;28;20586;-67
2022/11/29 03:17:17;;;;;;;190.80;31.37;;;;;;;;;;5009609;28;20008;-67
2022/11/29 03:19:46;;;;;;;190.63;32.20;;;;;;;;;;5010368;28;20210;-67
2022/11/29 03:22:31;;;;;;;189.87;32.87;;;;;;;;;;5009945;28;20052;-67
2022/11/29 03:24:57;;;;;;;183.67;31.97;;;;;;;;;;5010674;28;20136;-67
2022/11/29 03:27:29;;;;;;;130.73;27.87;;;;;;;;;;5008470;28;20926;-67
2022/11/29 03:29:58;;;;;;;195.47;33.27;;;;;;;;;;5010598;28;20054;-67
2022/11/29 03:32:53;;;;;;;185.97;34.33;;;;;;;;;;5010825;28;20045;-67
2022/11/29 03:35:25;;;;;;;254.77;37.33;;;;;;;;;;4985482;28;20527;-67
2022/11/29 03:37:59;;;;;;;252.20;37.23;;;;;;;;;;4990875;28;20418;-67
2022/11/29 03:40:48;;;;;;;180.50;33.10;;;;;;;;;;4991035;28;20050;-67
2022/11/29 03:43:29;;;;;;;272.70;37.77;;;;;;;;;;4981053;28;20099;-67
2022/11/29 03:46:02;;;;;;;283.80;39.90;;;;;;;;;;4989679;28;20054;-67
2022/11/29 03:48:34;;;;;;;199.77;32.67;;;;;;;;;;4989358;28;20054;-67
2022/11/29 03:51:06;;;;;;;372.63;47.20;;;;;;;;;;4990280;28;20054;-67
2022/11/29 03:53:39;;;;;;;347.63;44.10;;;;;;;;;;4989314;28;20133;-68
2022/11/29 03:56:22;;;;;;;374.03;46.50;;;;;;;;;;4991312;28;20794;-67
2022/11/29 03:59:03;;;;;;;309.98;40.15;;;;;;;;;;4990400;28;20050;-67
2022/11/29 04:01:29;;;;;;;291.93;41.93;;;;;;;;;;4990115;28;20580;-67
2022/11/29 04:04:14;;;;;;;384.40;48.63;;;;;;;;;;4989034;28;20174;-67
2022/11/29 04:07:09;;;;;;;261.30;37.23;;;;;;;;;;4987730;28;20086;-67
2022/11/29 04:09:44;;;;;;;341.70;43.57;;;;;;;;;;4938090;28;20145;-67
2022/11/29 04:12:22;;;;;;;387.90;47.00;;;;;;;;;;4990397;28;20049;-67
2022/11/29 04:15:07;;;;;;;382.30;47.90;;;;;;;;;;4989004;28;20050;-67
2022/11/29 04:17:42;;;;;;;405.53;50.40;;;;;;;;;;4990448;28;20126;-67
2022/11/29 04:20:27;;;;;;;366.07;45.27;;;;;;;;;;4989916;28;20050;-67
2022/11/29 04:23:11;;;;;;;315.23;40.77;;;;;;;;;;4989947;28;20050;-67
2022/11/29 04:25:46;;;;;;;300.53;41.03;;;;;;;;;;4990054;28;20465;-67
2022/11/29 04:28:12;;;;;;;294.90;40.43;;;;;;;;;;4988741;28;20056;-67
2022/11/29 04:30:46;;;;;;;431.73;53.00;;;;;;;;;;4990415;28;20761;-67
2022/11/29 04:33:12;;;;;;;418.00;52.57;;;;;;;;;;4996252;28;20034;-67
2022/11/29 04:35:57;;;;;;;397.13;47.13;;;;;;;;;;5009742;28;20049;-67
2022/11/29 04:38:35;;;;;;;415.10;52.03;;;;;;;;;;5009304;28;20042;-67
2022/11/29 04:41:21;;;;;;;322.73;40.70;;;;;;;;;;5008537;28;20168;-67
2022/11/29 04:44:06;;;;;;;310.93;41.13;;;;;;;;;;5007673;28;20085;-67
2022/11/29 04:46:50;;;;;;;416.63;51.17;;;;;;;;;;5006255;28;20053;-67
2022/11/29 04:49:25;;;;;;;415.43;49.97;;;;;;;;;;4989887;28;20057;-67
2022/11/29 04:52:10;;;;;;;293.23;38.13;;;;;;;;;;4988219;28;20840;-67
2022/11/29 04:54:46;;;;;;;359.13;43.77;;;;;;;;;;4988361;28;20145;-67
2022/11/29 04:57:33;;;;;;;366.37;45.37;;;;;;;;;;4989836;28;20120;-67
2022/11/29 05:00:06;;;;;;;355.50;44.70;;;;;;;;;;4985696;28;20050;-66
2022/11/29 05:02:53;;;;;;;427.27;45.00;;;;;;;;;;4989464;28;20050;-67
2022/11/29 05:05:31;;;;;;;523.63;52.10;;;;;;;;;;4989834;28;20061;-67
2022/11/29 05:07:57;;;;;;;477.93;47.70;;;;;;;;;;4988918;28;20088;-67
2022/11/29 05:10:39;;;;;;;419.30;45.13;;;;;;;;;;4996354;28;20049;-67
2022/11/29 05:13:17;;;;;;;317.50;33.47;;;;;;;;;;5027979;28;20075;-66
2022/11/29 05:16:01;;;;;;;382.27;41.80;;;;;;;;;;5027239;28;20140;-67
2022/11/29 05:18:46;;;;;;;383.27;39.00;;;;;;;;;;5028117;28;20045;-67
2022/11/29 05:21:21;;;;;;;344.60;37.80;;;;;;;;;;4993347;28;20523;-67
2022/11/29 05:23:50;;;;;;;419.37;44.93;;;;;;;;;;4989265;28;20169;-67
2022/11/29 05:26:26;;;;;;;401.10;42.43;;;;;;;;;;4989149;28;20052;-67
2022/11/29 05:29:09;;;;;;;391.97;41.03;;;;;;;;;;4988179;28;20039;-67
2022/11/29 05:31:54;;;;;;;365.30;39.72;;;;;;;;;;4988977;28;20456;-67
2022/11/29 05:34:25;;;;;;;417.10;43.73;;;;;;;;;;5004559;28;20073;-67
2022/11/29 05:36:54;;;;;;;425.47;41.00;;;;;;;;;;5008567;28;20045;-66
2022/11/29 05:39:20;;;;;;;498.17;48.53;;;;;;;;;;4991201;28;20074;-67
2022/11/29 05:41:56;;;;;;;333.13;36.40;;;;;;;;;;4989217;28;20050;-67
2022/11/29 05:44:34;;;;;;;419.37;42.70;;;;;;;;;;4988945;28;20061;-67
2022/11/29 05:47:09;;;;;;;482.43;47.10;;;;;;;;;;4988598;28;20050;-67
2022/11/29 05:49:38;;;;;;;465.33;46.53;;;;;;;;;;4987978;28;20109;-67
2022/11/29 05:52:23;;;;;;;424.33;44.23;;;;;;;;;;4990355;28;20076;-67
2022/11/29 05:55:06;;;;;;;461.77;45.23;;;;;;;;;;4990213;28;20101;-67
2022/11/29 05:57:38;;;;;;;445.90;46.03;;;;;;;;;;4990074;28;20077;-67
2022/11/29 06:00:05;;;;;;;503.37;48.53;;;;;;;;;;4991401;28;20049;-67
2022/11/29 06:02:32;;;;;;;436.37;44.07;;;;;;;;;;4990913;28;20397;-67
2022/11/29 06:04:58;;;;;;;387.07;40.03;;;;;;;;;;4992129;28;20065;-67
2022/11/29 06:07:30;;;;;;;413.87;42.80;;;;;;;;;;4992625;28;20104;-67
2022/11/29 06:10:02;;;;;;;427.87;42.87;;;;;;;;;;4990748;28;20058;-67
2022/11/29 06:12:34;;;;;;;402.43;42.60;;;;;;;;;;4992953;28;20046;-67
2022/11/29 06:15:03;;;;;;;373.63;39.77;;;;;;;;;;4991338;28;20057;-67
2022/11/29 06:17:41;;;;;;;423.93;43.17;;;;;;;;;;4992188;28;20053;-67
2022/11/29 06:20:26;;;;;;;411.53;43.03;;;;;;;;;;4992248;28;20603;-67
2022/11/29 06:22:52;;;;;;;468.40;44.57;;;;;;;;;;4992108;28;20161;-67
2022/11/29 06:25:24;;;;;;;472.27;44.13;;;;;;;;;;4992282;28;20128;-67
2022/11/29 06:28:22;;;;;;;387.67;40.13;;;;;;;;;;4990798;28;20053;-67
2022/11/29 06:31:00;;;;;;;432.93;43.17;;;;;;;;;;4980325;28;20054;-67
2022/11/29 06:33:30;;;;;;;339.07;33.97;;;;;;;;;;4998565;28;20058;-67
2022/11/29 06:36:19;;;;;;;355.07;38.07;;;;;;;;;;5009973;28;20054;-67
2022/11/29 06:38:45;;;;;;;566.00;54.63;;;;;;;;;;5010184;28;20085;-67
2022/11/29 06:41:19;;;;;;;369.27;40.60;;;;;;;;;;5010327;28;20136;-67
2022/11/29 06:43:45;;;;;;;409.30;42.93;;;;;;;;;;5011529;28;20104;-67
2022/11/29 06:46:30;;;;;;;369.10;38.20;;;;;;;;;;5002925;28;20535;-67
2022/11/29 06:49:07;;;;;;;494.27;50.60;;;;;;;;;;4991776;28;20524;-67
2022/11/29 06:51:38;;;;;;;342.87;38.27;;;;;;;;;;4990707;28;20038;-67
2022/11/29 06:54:07;;;;;;;387.43;41.83;;;;;;;;;;4991795;28;20038;-67
2022/11/29 06:56:38;;;;;;;733.80;86.47;;;;;;;;;;4990007;28;20505;-67
2022/11/29 06:59:16;;;;;;;1508.30;209.87;;;;;;;;;;4991723;28;20130;-67
2022/11/29 07:01:42;;;;;;;407.83;48.50;;;;;;;;;;4991436;28;20054;-67
2022/11/29 07:04:11;;;;;;;397.17;45.03;;;;;;;;;;4991471;28;20507;-67
2022/11/29 07:06:37;;;;;;;363.87;42.87;;;;;;;;;;4990935;28;20093;-67
2022/11/29 07:09:15;;;;;;;338.90;37.80;;;;;;;;;;4992232;28;20386;-67
2022/11/29 07:11:41;;;;;;;397.23;42.00;;;;;;;;;;4995944;28;20064;-67
2022/11/29 07:14:08;;;;;;;407.83;42.47;;;;;;;;;;4990707;28;20046;-67
2022/11/29 07:16:53;;;;;;;499.30;51.37;;;;;;;;;;4990803;28;20154;-67
2022/11/29 07:19:22;;;;;;;370.37;40.30;;;;;;;;;;4995575;28;20045;-67
2022/11/29 07:22:06;;;;;;;400.53;43.47;;;;;;;;;;4995896;28;20077;-67
2022/11/29 07:24:32;;;;;;;470.25;50.30;;;;;;;;;;5008723;28;20100;-67
2022/11/29 07:27:01;;;;;;;468.97;50.23;;;;;;;;;;5004778;28;20483;-67
2022/11/29 07:29:37;;;;;;;366.50;42.87;;;;;;;;;;4975094;28;20054;-67
2022/11/29 07:32:06;;;;;;;346.67;41.03;;;;;;;;;;5004140;28;20076;-67
2022/11/29 07:34:35;;;;;;;301.07;36.60;;;;;;;;;;5005259;28;20053;-67
2022/11/29 07:37:13;;;;;;;299.63;35.47;;;;;;;;;;5007705;28;20546;-67
2022/11/29 07:40:00;;;;;;;409.37;44.90;;;;;;;;;;5002793;28;20060;-67
2022/11/29 07:42:48;;;;;;;421.80;46.87;;;;;;;;;;5002564;28;20429;-67
2022/11/29 07:45:14;;;;;;;401.03;43.63;;;;;;;;;;5009272;28;20057;-67
2022/11/29 07:47:40;;;;;;;336.40;37.33;;;;;;;;;;5008479;28;20596;-67
2022/11/29 07:50:06;;;;;;;412.77;45.73;;;;;;;;;;5008494;28;20044;-67
2022/11/29 07:52:32;;;;;;;335.47;38.43;;;;;;;;;;5009285;28;20038;-66
2022/11/29 07:54:58;;;;;;;557.83;61.10;;;;;;;;;;5008317;28;20049;-67
2022/11/29 07:57:24;;;;;;;364.50;41.23;;;;;;;;;;5008017;28;20424;-67
2022/11/29 07:59:51;;;;;;;295.93;38.77;;;;;;;;;;5006900;28;20050;-67
2022/11/29 08:02:26;;;;;;;357.33;42.57;;;;;;;;;;5009256;28;20575;-67
2022/11/29 08:04:52;;;;;;;224.80;32.17;;;;;;;;;;5009439;28;20054;-67
2022/11/29 08:07:18;;;;;;;328.20;40.10;;;;;;;;;;5007198;28;20496;-67
2022/11/29 08:09:44;;;;;;;461.10;50.73;;;;;;;;;;5007530;28;20050;-67
2022/11/29 08:12:10;;;;;;;438.33;47.87;;;;;;;;;;4996945;28;20048;-67
2022/11/29 08:14:36;;;;;;;414.57;47.73;;;;;;;;;;5007632;28;20129;-67
2022/11/29 08:17:02;;;;;;;298.33;35.20;;;;;;;;;;5008366;28;20886;-67
2022/11/29 08:19:28;;;;;;;347.80;41.33;;;;;;;;;;5007859;28;20150;-67
2022/11/29 08:21:54;;;;;;;248.90;34.00;;;;;;;;;;5008981;28;20137;-67
2022/11/29 08:24:20;;;;;;;275.63;35.30;;;;;;;;;;4995052;28;20041;-67
2022/11/29 08:26:46;;;;;;;302.33;35.43;;;;;;;;;;5008684;28;20050;-67
2022/11/29 08:29:12;;;;;;;329.10;37.90;;;;;;;;;;5005403;28;20077;-66
2022/11/29 08:31:38;;;;;;;384.17;41.87;;;;;;;;;;5006062;28;20042;-67
2022/11/29 08:34:08;;;;;;;359.80;40.30;;;;;;;;;;5008137;28;20041;-67
2022/11/29 08:36:34;;;;;;;405.97;46.20;;;;;;;;;;5008708;28;20046;-67
2022/11/29 08:39:03;;;;;;;400.90;43.07;;;;;;;;;;5008135;28;20038;-67
2022/11/29 08:41:29;;;;;;;326.57;39.10;;;;;;;;;;5007510;28;20041;-66
2022/11/29 08:43:55;;;;;;;284.43;36.20;;;;;;;;;;5007111;28;20081;-67
2022/11/29 08:47:34;;;;;;;355.53;41.53;;;;;;;;;;5007064;28;20041;-67
2022/11/29 08:49:07;;;;;;;421.60;47.53;;;;;;;;;;5007687;28;20049;-66
2022/11/29 08:51:33;;;;;;;386.20;42.73;;;;;;;;;;5008533;28;20567;-67
2022/11/29 08:54:00;;;;;;;338.17;40.47;;;;;;;;;;4990579;28;20096;-67
2022/11/29 08:56:26;;;;;;;272.30;36.30;;;;;;;;;;5006596;28;20080;-67
2022/11/29 08:58:52;;;;;;;247.03;32.47;;;;;;;;;;4990174;28;20503;-67
2022/11/29 09:01:19;;;;;;;270.73;34.90;;;;;;;;;;4990976;28;20153;-67
2022/11/29 09:06:36;;;;;;;197.63;29.70;;;;;;;;;;5007645;28;20050;-66
2022/11/29 09:09:03;;;;;;;237.23;31.57;;;;;;;;;;5007642;28;20129;-67
2022/11/29 09:11:30;;;;;;;239.77;34.83;;;;;;;;;;5007382;28;20042;-67
2022/11/29 09:13:57;;;;;;;283.23;35.93;;;;;;;;;;5005094;28;20042;-67
2022/11/29 09:16:24;;;;;;;290.00;37.83;;;;;;;;;;5007684;28;20069;-66
2022/11/29 09:18:53;;;;;;;241.90;35.37;;;;;;;;;;5004469;28;20077;-67
2022/11/29 09:21:19;;;;;;;300.87;39.10;;;;;;;;;;5006397;28;20741;-67
2022/11/29 09:23:45;;;;;;;264.17;34.33;;;;;;;;;;5007851;28;21673;-67
2022/11/29 09:26:16;;;;;;;298.80;38.37;;;;;;;;;;5008052;28;20049;-67
2022/11/29 09:28:42;;;;;;;277.03;39.07;;;;;;;;;;5011212;28;20056;-66
2022/11/29 09:31:09;;;;;;;277.93;36.90;;;;;;;;;;5011644;28;20052;-67
2022/11/29 09:33:35;;;;;;;225.40;30.83;;;;;;;;;;5011854;28;20469;-67
2022/11/29 09:36:02;;;;;;;246.40;31.77;;;;;;;;;;5011966;28;20041;-66
2022/11/29 09:38:28;;;;;;;262.90;35.83;;;;;;;;;;4994104;28;20049;-66
2022/11/29 09:41:08;;;;;;;198.43;30.93;;;;;;;;;;5009645;28;20057;-67
2022/11/29 09:43:34;;;;;;;120.00;25.67;;;;;;;;;;5011454;28;20050;-66
2022/11/29 09:46:14;;;;;;;126.57;25.30;;;;;;;;;;5009512;28;20052;-66
2022/11/29 09:48:43;;;;;;;96.47;21.13;;;;;;;;;;5011863;28;20497;-67
2022/11/29 09:51:27;;;;;;;113.67;23.43;;;;;;;;;;5011333;28;20129;-66
2022/11/29 09:54:03;;;;;;;122.15;22.85;;;;;;;;;;5011245;28;20192;-67
2022/11/29 09:56:55;;;;;;;97.03;21.90;;;;;;;;;;5011190;28;20050;-66
2022/11/29 09:59:27;;;;;;;131.67;26.20;;;;;;;;;;5009292;28;20054;-66
2022/11/29 10:02:05;;;;;;;125.67;25.03;;;;;;;;;;5009957;28;20500;-67
2022/11/29 10:04:35;;;;;;;105.70;23.07;;;;;;;;;;5011721;28;20042;-66
2022/11/29 10:07:13;;;;;;;106.73;24.10;;;;;;;;;;5010648;28;20841;-66
2022/11/29 10:09:50;;;;;;;94.47;22.60;;;;;;;;;;5011323;28;20088;-67
2022/11/29 10:12:21;;;;;;;89.33;20.70;;;;;;;;;;5011427;28;20555;-67
2022/11/29 10:15:12;;;;;;;68.13;18.57;;;;;;;;;;5011339;28;20469;-66
2022/11/29 10:17:39;;;;;;;76.40;21.40;;;;;;;;;;4997208;28;20354;-67
2022/11/29 10:20:10;;;;;;;72.57;18.43;;;;;;;;;;4991870;28;20042;-67
2022/11/29 10:22:48;;;;;;;80.63;20.10;;;;;;;;;;5002021;28;20124;-67
2022/11/29 10:25:21;;;;;;;75.07;18.80;;;;;;;;;;5011349;28;20042;-67
2022/11/29 10:27:47;;;;;;;58.00;16.58;;;;;;;;;;5011187;28;20045;-67
2022/11/29 10:30:14;;;;;;;79.63;19.07;;;;;;;;;;5007309;28;20046;-67
2022/11/29 10:32:40;;;;;;;55.93;17.90;;;;;;;;;;4995854;28;20045;-67
2022/11/29 10:35:12;;;;;;;51.57;17.40;;;;;;;;;;4997522;28;20165;-67
2022/11/29 10:37:38;;;;;;;61.67;17.03;;;;;;;;;;4991394;28;20129;-67
2022/11/29 10:40:09;;;;;;;60.77;17.93;;;;;;;;;;5010496;28;20042;-67
2022/11/29 10:42:47;;;;;;;67.43;19.57;;;;;;;;;;5010647;28;20177;-67
2022/11/29 10:45:22;;;;;;;71.23;18.67;;;;;;;;;;4993378;28;20089;-66
2022/11/29 10:47:49;;;;;;;54.27;17.00;;;;;;;;;;4998338;28;20057;-66
2022/11/29 10:50:20;;;;;;;59.83;17.23;;;;;;;;;;4995379;28;20085;-67
2022/11/29 10:52:46;;;;;;;52.37;15.30;;;;;;;;;;5009880;28;20053;-66
2022/11/29 10:55:14;;;;;;;57.80;16.50;;;;;;;;;;5010104;28;20054;-66
2022/11/29 10:57:59;;;;;;;49.73;14.80;;;;;;;;;;5004318;28;20072;-67
2022/11/29 11:00:26;;;;;;;55.03;15.67;;;;;;;;;;5007799;28;20054;-67
2022/11/29 11:02:52;;;;;;;47.03;14.30;;;;;;;;;;5001520;28;20112;-66
2022/11/29 11:05:25;;;;;;;39.33;13.27;;;;;;;;;;5004267;28;20085;-66
2022/11/29 11:07:58;;;;;;;46.08;14.57;;;;;;;;;;5002514;28;20121;-66
2022/11/29 11:10:28;;;;;;;36.07;12.00;;;;;;;;;;5000117;28;20049;-66
2022/11/29 11:13:01;;;;;;;38.23;13.90;;;;;;;;;;5006944;28;20053;-66
2022/11/29 11:15:27;;;;;;;;;;;;;;;;;;5005318;28;20038;-66
2022/11/29 11:17:55;;;;;;;45.33;14.47;;;;;;;;;;5005722;28;19987;-66
2022/11/29 11:20:22;;;;;;;30.47;13.47;;;;;;;;;;5010322;28;20046;-66
2022/11/29 11:22:59;;;;;;;45.27;14.20;;;;;;;;;;4994244;28;20073;-66
2022/11/29 11:25:25;;;;;;;37.43;12.50;;;;;;;;;;5010334;28;20054;-66
2022/11/29 11:27:51;;;;;;;31.93;12.30;;;;;;;;;;5010354;28;20056;-66
2022/11/29 11:30:21;;;;;;;42.37;15.60;;;;;;;;;;5008210;28;20463;-66
2022/11/29 11:33:17;;;;;;;31.87;11.93;;;;;;;;;;4989330;28;20120;-66
2022/11/29 11:35:43;;;;;;;41.20;13.40;;;;;;;;;;4995515;28;20110;-66
2022/11/29 11:38:16;;;;;;;26.50;10.70;;;;;;;;;;5005487;28;20124;-66
2022/11/29 11:40:43;;;;;;;30.65;11.45;;;;;;;;;;4989886;28;20421;-66
2022/11/29 11:43:17;;;;;;;30.70;12.47;;;;;;;;;;4989788;28;20455;-66
2022/11/29 11:45:50;;;;;;;23.43;10.33;;;;;;;;;;4989927;28;20057;-66
2022/11/29 11:48:18;;;;;;;31.25;12.70;;;;;;;;;;4988062;28;20521;-66
2022/11/29 11:50:49;;;;;;;36.37;12.47;;;;;;;;;;4989649;28;20061;-66
2022/11/29 11:53:26;;;;;;;31.80;12.03;;;;;;;;;;4988564;28;20129;-66
2022/11/29 11:55:58;;;;;;;27.30;9.80;;;;;;;;;;4989851;28;20046;-66
2022/11/29 11:58:26;;;;;;;29.70;11.27;;;;;;;;;;4989653;28;20573;-66
2022/11/29 12:00:57;;;;;;;28.57;11.37;;;;;;;;;;4989386;28;20081;-66
2022/11/29 12:03:42;;;;;;;26.00;10.93;;;;;;;;;;4989740;28;20141;-66
2022/11/29 12:06:17;;;;;;;26.27;10.60;;;;;;;;;;4989807;28;20141;-66
2022/11/29 12:08:44;;;;;;;27.50;9.63;;;;;;;;;;4989444;28;20164;-66
2022/11/29 12:11:11;;;;;;;21.90;10.23;;;;;;;;;;4989411;28;20042;-66
2022/11/29 12:13:40;;;;;;;20.60;10.27;;;;;;;;;;4989293;28;20042;-66
2022/11/29 12:16:10;;;;;;;30.17;12.37;;;;;;;;;;4989393;28;20065;-66
2022/11/29 12:18:46;;;;;;;22.63;11.33;;;;;;;;;;4989450;28;20121;-66
2022/11/29 12:21:13;;;;;;;26.63;10.20;;;;;;;;;;4989375;28;20043;-66
2022/11/29 12:23:49;;;;;;;26.40;10.10;;;;;;;;;;4989250;28;20050;-66
2022/11/29 12:26:23;;;;;;;30.60;11.70;;;;;;;;;;4987920;28;20698;-66
2022/11/29 12:28:49;;;;;;;23.03;10.27;;;;;;;;;;4989024;28;20042;-65
2022/11/29 12:31:15;;;;;;;29.07;11.53;;;;;;;;;;4987702;28;20054;-66
2022/11/29 12:34:00;;;;;;;27.00;10.87;;;;;;;;;;4989088;28;20053;-66
2022/11/29 12:36:52;;;;;;;23.37;11.73;;;;;;;;;;4989145;28;20062;-66
2022/11/29 12:39:25;;;;;;;30.13;12.03;;;;;;;;;;4980229;28;20504;-67
2022/11/29 12:41:55;;;;;;;31.55;13.30;;;;;;;;;;4988943;28;20134;-65
2022/11/29 12:44:24;;;;;;;32.83;12.50;;;;;;;;;;4988562;28;20100;-65
2022/11/29 12:47:06;;;;;;;27.13;12.03;;;;;;;;;;4988443;28;20121;-66
2022/11/29 12:49:32;;;;;;;37.87;13.30;;;;;;;;;;4988555;28;20078;-66
2022/11/29 12:52:10;;;;;;;23.60;11.20;;;;;;;;;;4989022;28;20513;-66
2022/11/29 12:54:54;;;;;;;25.43;11.00;;;;;;;;;;4987542;28;20065;-66
2022/11/29 12:57:23;;;;;;;29.53;12.80;;;;;;;;;;4987455;28;20137;-65
2022/11/29 12:59:56;;;;;;;27.17;10.63;;;;;;;;;;4988092;28;20102;-66
2022/11/29 13:02:34;;;;;;;30.10;11.83;;;;;;;;;;4988586;28;20053;-66
2022/11/29 13:05:03;;;;;;;33.93;13.20;;;;;;;;;;4988731;28;20116;-65
2022/11/29 13:07:38;;;;;;;26.70;11.57;;;;;;;;;;4988362;28;20050;-65
2022/11/29 13:10:13;;;;;;;27.47;10.97;;;;;;;;;;4988606;28;20058;-65
2022/11/29 13:12:39;;;;;;;28.23;10.03;;;;;;;;;;4988659;28;20054;-66
2022/11/29 13:15:08;;;;;;;33.33;11.80;;;;;;;;;;4988842;28;20046;-66
2022/11/29 13:17:34;;;;;;;29.47;10.50;;;;;;;;;;4986974;28;20101;-65
2022/11/29 13:20:15;;;;;;;31.87;12.07;;;;;;;;;;4988700;28;20121;-66
2022/11/29 13:22:44;;;;;;;28.37;11.13;;;;;;;;;;4988572;28;20799;-66
2022/11/29 13:25:16;;;;;;;32.17;11.10;;;;;;;;;;4988791;28;20171;-66
2022/11/29 13:27:45;;;;;;;30.80;10.37;;;;;;;;;;4987310;28;20564;-66
2022/11/29 13:30:14;;;;;;;44.80;12.00;;;;;;;;;;4988322;28;20093;-66
2022/11/29 13:33:00;;;;;;;34.07;10.73;;;;;;;;;;4986680;28;20125;-66
2022/11/29 13:35:35;;;;;;;30.47;11.77;;;;;;;;;;4988212;28;20082;-66
2022/11/29 13:38:07;;;;;;;48.30;14.10;;;;;;;;;;4988209;28;20395;-65
2022/11/29 13:40:33;;;;;;;38.63;13.20;;;;;;;;;;4988128;28;20058;-65
2022/11/29 13:43:05;;;;;;;33.87;12.83;;;;;;;;;;4987317;28;20054;-65
2022/11/29 13:45:41;;;;;;;43.60;12.63;;;;;;;;;;4988162;28;20120;-65
2022/11/29 13:48:26;;;;;;;46.50;14.37;;;;;;;;;;4988368;28;20493;-65
2022/11/29 13:50:52;;;;;;;32.83;13.53;;;;;;;;;;4988389;28;20054;-66
2022/11/29 13:53:22;;;;;;;40.37;15.10;;;;;;;;;;4986725;28;20050;-66
2022/11/29 13:55:59;;;;;;;47.03;15.20;;;;;;;;;;4987976;28;20046;-65
2022/11/29 13:58:29;;;;;;;40.90;16.10;;;;;;;;;;4988392;28;20042;-65
2022/11/29 14:01:00;;;;;;;41.23;14.17;;;;;;;;;;4987911;28;20149;-66
2022/11/29 14:03:34;;;;;;;47.00;15.33;;;;;;;;;;4988176;28;20055;-65
2022/11/29 14:06:06;;;;;;;48.63;16.07;;;;;;;;;;4988010;28;20058;-65
2022/11/29 14:08:50;;;;;;;49.40;15.47;;;;;;;;;;4987857;28;20100;-65
2022/11/29 14:11:16;;;;;;;45.60;15.47;;;;;;;;;;4987986;28;20173;-65
2022/11/29 14:13:42;;;;;;;41.90;16.67;;;;;;;;;;4990713;28;20133;-65
2022/11/29 14:16:17;;;;;;;53.90;16.13;;;;;;;;;;4991419;28;20053;-65
2022/11/29 14:19:02;;;;;;;47.03;15.43;;;;;;;;;;4991254;28;20046;-66
2022/11/29 14:21:47;;;;;;;43.10;15.17;;;;;;;;;;4990488;28;20769;-66
2022/11/29 14:24:42;;;;;;;43.10;15.13;;;;;;;;;;4991543;28;20054;-66
2022/11/29 14:27:08;;;;;;;50.77;15.53;;;;;;;;;;4986726;28;20093;-66
2022/11/29 14:29:47;;;;;;;45.27;15.47;;;;;;;;;;4990237;28;20380;-66
2022/11/29 14:32:43;;;;;;;50.53;15.77;;;;;;;;;;4991499;28;20052;-65
2022/11/29 14:35:12;;;;;;;43.23;14.90;;;;;;;;;;4986250;28;20402;-66
2022/11/29 14:37:56;;;;;;;49.80;15.57;;;;;;;;;;4991106;28;20463;-65
2022/11/29 14:40:22;;;;;;;52.80;14.73;;;;;;;;;;4991092;28;20054;-65
2022/11/29 14:42:49;;;;;;;42.10;14.50;;;;;;;;;;4990885;28;20050;-65
2022/11/29 14:45:24;;;;;;;47.93;17.17;;;;;;;;;;4991301;28;20140;-65